Time;durP1;ratioP1;P1;durP2;ratioP2;P2;SDS_P1;SDS_P2;PMS_P1;PMS_P2;Temp;Humidity;BMP_temperature;BMP_pressure;BME280_temperature;BME280_humidity;BME280_pressure;Samples;Min_cycle;Max_cycle;Signal;HPM_P1;HPM_P2
2023/03/21 00:02:23;;;;;;;14.32;10.80;;;;;;;9.19;72.94;101128.84;4902562;29;20216;-77
2023/03/21 00:04:52;;;;;;;12.57;10.15;;;;;;;9.12;73.69;101130.63;4889812;29;20191;-76
2023/03/21 00:07:25;;;;;;;14.90;10.05;;;;;;;9.10;73.60;101130.78;4899673;29;20227;-76
2023/03/21 00:09:55;;;;;;;14.40;9.75;;;;;;;9.24;73.86;101133.69;4892339;29;20206;-75
2023/03/21 00:12:36;;;;;;;8.98;7.97;;;;;;;9.13;73.65;101130.44;4880103;29;20195;-76
2023/03/21 00:15:09;;;;;;;13.05;9.05;;;;;;;9.10;73.89;101129.97;4881854;29;20242;-76
2023/03/21 00:17:52;;;;;;;15.43;9.07;;;;;;;9.15;73.69;101128.38;4875913;29;20229;-77
2023/03/21 00:20:22;;;;;;;12.25;9.43;;;;;;;9.19;74.06;101122.59;4880140;29;20298;-76
2023/03/21 00:22:51;;;;;;;10.18;8.50;;;;;;;9.19;73.94;101128.00;4890696;29;20221;-77
2023/03/21 00:28:11;;;;;;;10.55;8.30;;;;;;;9.09;74.32;101123.75;4886037;29;20227;-77
2023/03/21 00:30:44;;;;;;;10.65;8.57;;;;;;;9.16;74.37;101124.66;4882122;29;20238;-77
2023/03/21 00:33:13;;;;;;;12.27;8.93;;;;;;;9.11;74.00;101126.22;4893952;29;20216;-76
2023/03/21 00:35:56;;;;;;;11.70;9.63;;;;;;;9.08;74.17;101110.41;4887996;29;20255;-76
2023/03/21 00:38:35;;;;;;;10.30;9.27;;;;;;;9.10;74.40;101111.88;4885395;29;20244;-77
2023/03/21 00:41:06;;;;;;;8.88;8.00;;;;;;;9.15;74.98;101111.31;4887999;29;20204;-76
2023/03/21 00:43:54;;;;;;;10.98;8.73;;;;;;;9.24;73.77;101114.78;4891397;29;20194;-77
2023/03/21 00:46:25;;;;;;;12.52;7.85;;;;;;;9.19;74.72;101117.22;4877711;29;20207;-77
2023/03/21 00:49:04;;;;;;;17.25;8.20;;;;;;;9.24;74.19;101106.69;4886371;29;20220;-77
2023/03/21 00:51:33;;;;;;;9.88;8.93;;;;;;;9.35;74.59;101107.03;4886412;29;20227;-77
2023/03/21 00:54:04;;;;;;;10.02;8.50;;;;;;;9.39;73.73;101107.50;4906310;29;20200;-79
2023/03/21 00:56:33;;;;;;;12.02;9.25;;;;;;;9.42;74.44;101104.41;4886500;29;20264;-77
2023/03/21 00:59:03;;;;;;;10.55;9.40;;;;;;;9.39;74.40;101102.09;4887446;29;20232;-77
2023/03/21 01:01:34;;;;;;;12.38;9.50;;;;;;;9.27;73.80;101103.59;4903619;29;20644;-76
2023/03/21 01:04:12;;;;;;;12.63;9.30;;;;;;;9.30;74.98;101100.50;4881048;29;20715;-77
2023/03/21 01:06:43;;;;;;;13.52;8.90;;;;;;;9.33;75.23;101102.84;4885300;29;20286;-77
2023/03/21 01:09:16;;;;;;;11.05;9.95;;;;;;;9.30;75.61;101098.66;4884879;29;20318;-77
2023/03/21 01:11:45;;;;;;;13.70;10.23;;;;;;;9.30;74.28;101097.81;4894226;29;20187;-76
2023/03/21 01:14:16;;;;;;;19.95;11.40;;;;;;;9.26;75.43;101091.13;4888430;29;20199;-77
2023/03/21 01:16:56;;;;;;;10.63;9.50;;;;;;;9.27;75.09;101093.63;4887470;29;20223;-77
2023/03/21 01:19:27;;;;;;;14.00;10.80;;;;;;;9.31;74.53;101096.78;4885967;29;20667;-76
2023/03/21 01:22:16;;;;;;;15.20;11.65;;;;;;;9.15;75.05;101103.22;4884122;29;20307;-76
2023/03/21 01:24:47;;;;;;;16.45;12.48;;;;;;;9.25;74.66;101092.13;4890723;29;20224;-75
2023/03/21 01:27:36;;;;;;;18.13;13.27;;;;;;;9.14;75.15;101098.88;4882810;29;20771;-77
2023/03/21 01:30:07;;;;;;;18.30;12.95;;;;;;;9.24;75.65;101095.88;4891231;29;20234;-76
2023/03/21 01:32:49;;;;;;;19.67;13.68;;;;;;;9.20;74.47;101086.50;4884537;29;20199;-76
2023/03/21 01:35:19;;;;;;;17.05;12.98;;;;;;;9.18;75.26;101102.88;4890714;29;20208;-75
2023/03/21 01:37:48;;;;;;;23.55;13.60;;;;;;;9.20;74.92;101087.31;4881659;29;20247;-76
2023/03/21 01:40:20;;;;;;;18.48;14.63;;;;;;;9.11;75.08;101100.06;4897356;29;20557;-76
2023/03/21 01:42:53;;;;;;;17.55;13.90;;;;;;;9.20;75.35;101098.09;4887783;29;20216;-76
2023/03/21 01:46:08;;;;;;;15.73;13.70;;;;;;;9.09;74.69;101094.03;4876148;29;20192;-76
2023/03/21 01:49:08;;;;;;;19.65;14.20;;;;;;;9.09;75.36;101094.03;4830626;29;20747;-77
2023/03/21 01:51:42;;;;;;;22.70;14.55;;;;;;;9.07;75.23;101101.47;4824838;29;20736;-77
2023/03/21 01:54:17;;;;;;;17.52;15.32;;;;;;;9.12;75.76;101098.22;4882321;29;20211;-77
2023/03/21 01:56:47;;;;;;;27.58;15.00;;;;;;;9.12;75.11;101095.50;4883815;29;20201;-75
2023/03/21 01:59:25;;;;;;;19.85;13.40;;;;;;;9.09;75.75;101080.53;4891680;29;20235;-76
2023/03/21 02:02:31;;;;;;;19.42;14.57;;;;;;;9.19;75.25;101079.41;4892865;29;20264;-77
2023/03/21 02:05:12;;;;;;;17.70;14.13;;;;;;;9.10;75.24;101086.78;4883703;29;20728;-77
2023/03/21 02:07:42;;;;;;;22.42;16.05;;;;;;;9.17;75.65;101085.00;4883525;29;20606;-77
2023/03/21 02:10:18;;;;;;;21.58;15.35;;;;;;;9.21;74.93;101088.97;4891757;29;20210;-76
2023/03/21 02:12:53;;;;;;;21.05;16.30;;;;;;;9.19;75.35;101090.22;4890712;29;20199;-76
2023/03/21 02:15:25;;;;;;;17.85;15.50;;;;;;;9.09;75.17;101099.44;4888946;29;20728;-76
2023/03/21 02:18:14;;;;;;;20.85;16.45;;;;;;;9.09;76.18;101091.34;4886366;29;20291;-77
2023/03/21 02:21:11;;;;;;;22.88;17.13;;;;;;;9.14;76.06;101088.06;4895597;29;20201;-76
2023/03/21 02:24:19;;;;;;;23.95;19.17;;;;;;;9.09;75.54;101080.53;4894770;29;20226;-77
2023/03/21 02:27:13;;;;;;;25.27;20.17;;;;;;;9.04;76.21;101082.97;4891975;29;20204;-76
2023/03/21 02:30:39;;;;;;;25.33;18.73;;;;;;;9.05;76.90;101081.91;4887158;29;20238;-77
2023/03/21 02:33:56;;;;;;;26.75;21.60;;;;;;;9.10;76.40;101087.59;4870037;29;20463;-76
2023/03/21 02:36:37;;;;;;;24.02;20.13;;;;;;;9.12;76.92;101082.84;4862687;29;20712;-76
2023/03/21 02:39:16;;;;;;;25.50;20.67;;;;;;;9.11;76.64;101083.88;4887093;29;20225;-76
2023/03/21 02:41:50;;;;;;;27.20;21.48;;;;;;;9.07;76.92;101079.03;4893369;29;20678;-76
2023/03/21 02:44:40;;;;;;;45.58;24.85;;;;;;;9.05;76.99;101078.41;4886467;29;20207;-76
2023/03/21 02:47:14;;;;;;;32.90;23.15;;;;;;;8.92;77.46;101081.75;4883152;29;20580;-76
2023/03/21 02:49:52;;;;;;;31.85;24.52;;;;;;;8.88;78.31;101077.75;4883390;29;20226;-76
2023/03/21 02:52:26;;;;;;;34.03;22.80;;;;;;;8.82;78.22;101078.50;4906635;29;20237;-76
2023/03/21 02:55:14;;;;;;;30.88;23.20;;;;;;;8.84;78.94;101081.00;4907401;29;20196;-74
2023/03/21 02:57:55;;;;;;;31.90;24.73;;;;;;;8.86;79.22;101085.19;4910259;29;20247;-76
2023/03/21 03:00:28;;;;;;;36.53;24.10;;;;;;;8.77;79.23;101080.91;4888184;29;20228;-76
2023/03/21 03:02:59;;;;;;;32.97;25.50;;;;;;;8.87;79.01;101086.88;4882354;29;20240;-76
2023/03/21 03:05:45;;;;;;;33.13;25.45;;;;;;;8.83;79.13;101082.03;4888058;29;20224;-76
2023/03/21 03:08:42;;;;;;;35.95;24.08;;;;;;;8.62;80.21;101086.28;4884383;29;20233;-77
2023/03/21 03:11:33;;;;;;;32.00;24.27;;;;;;;8.62;80.95;101082.75;4881903;29;20680;-77
2023/03/21 03:14:19;;;;;;;35.85;24.85;;;;;;;8.67;80.89;101085.75;4910617;29;20203;-77
2023/03/21 03:17:20;;;;;;;35.72;25.75;;;;;;;8.69;81.04;101081.00;4882660;29;20207;-77
2023/03/21 03:20:05;;;;;;;35.90;24.38;;;;;;;8.57;81.75;101077.91;4902729;29;20224;-77
2023/03/21 03:22:54;;;;;;;31.73;22.20;;;;;;;8.61;81.82;101086.50;4883117;29;20634;-77
2023/03/21 03:25:30;;;;;;;35.05;23.25;;;;;;;8.61;81.72;101086.50;4903059;29;20711;-77
2023/03/21 03:28:20;;;;;;;36.42;22.73;;;;;;;8.60;82.63;101084.81;4888768;29;20231;-77
2023/03/21 03:30:51;;;;;;;53.55;24.42;;;;;;;8.68;81.86;101082.03;4882764;29;20213;-77
2023/03/21 03:33:44;;;;;;;32.22;24.77;;;;;;;8.65;82.08;101087.81;4882177;29;20229;-77
2023/03/21 03:36:17;;;;;;;44.20;24.27;;;;;;;8.57;83.05;101083.31;4884574;29;20198;-76
2023/03/21 03:39:05;;;;;;;32.90;24.42;;;;;;;8.51;83.36;101096.72;4885723;29;20223;-76
2023/03/21 03:41:42;;;;;;;39.25;23.90;;;;;;;8.59;84.02;101086.69;4882381;29;20235;-76
2023/03/21 03:44:37;;;;;;;39.08;24.67;;;;;;;8.65;84.04;101090.50;4881792;29;20222;-77
2023/03/21 03:47:10;;;;;;;31.45;23.10;;;;;;;8.59;84.63;101089.38;4886083;29;20211;-76
2023/03/21 03:50:02;;;;;;;31.13;23.48;;;;;;;8.47;86.20;101106.19;4882927;29;20711;-76
2023/03/21 03:52:37;;;;;;;36.30;23.83;;;;;;;8.43;87.61;101089.53;4876277;29;20200;-77
2023/03/21 03:55:27;;;;;;;33.30;24.70;;;;;;;8.33;88.54;101098.94;4887957;29;20200;-77
2023/03/21 03:58:58;;;;;;;34.25;23.63;;;;;;;8.35;90.19;101094.16;4883946;29;20235;-76
2023/03/21 04:01:46;;;;;;;34.15;23.70;;;;;;;8.32;91.25;101092.69;4902163;29;20644;-76
2023/03/21 04:04:16;;;;;;;38.22;24.90;;;;;;;8.22;91.94;101089.38;4889306;29;20215;-76
2023/03/21 04:06:52;;;;;;;34.47;24.55;;;;;;;8.25;92.78;101081.75;4881858;29;20203;-76
2023/03/21 04:09:25;;;;;;;33.97;26.25;;;;;;;8.35;92.55;101086.06;4892584;29;20223;-76
2023/03/21 04:12:12;;;;;;;32.15;22.92;;;;;;;8.33;92.41;101082.75;4882099;29;20715;-76
2023/03/21 04:14:43;;;;;;;38.20;26.00;;;;;;;8.48;91.43;101080.88;4883331;29;20727;-77
2023/03/21 04:17:19;;;;;;;31.38;24.35;;;;;;;8.52;90.41;101077.63;4883758;29;20199;-76
2023/03/21 04:19:50;;;;;;;36.05;25.83;;;;;;;8.50;90.19;101079.69;4898271;29;20224;-76
2023/03/21 04:22:26;;;;;;;32.78;23.08;;;;;;;8.54;90.02;101081.00;4898113;29;20203;-77
2023/03/21 04:24:55;;;;;;;35.40;23.50;;;;;;;8.51;89.40;101086.78;4881213;29;20216;-76
2023/03/21 04:27:24;;;;;;;41.38;25.70;;;;;;;8.45;90.53;101076.72;4881892;29;20226;-76
2023/03/21 04:30:07;;;;;;;35.35;23.52;;;;;;;8.52;89.23;101084.91;4900525;29;20204;-77
2023/03/21 04:32:55;;;;;;;41.38;24.30;;;;;;;8.43;90.07;101080.59;4887615;29;20208;-77
2023/03/21 04:35:27;;;;;;;37.95;24.40;;;;;;;8.50;89.36;101085.09;4897700;29;20733;-77
2023/03/21 04:37:56;;;;;;;35.97;24.75;;;;;;;8.33;90.18;101082.75;4877067;29;20220;-77
2023/03/21 04:40:26;;;;;;;32.40;23.42;;;;;;;8.39;90.38;101087.38;4884783;29;20272;-77
2023/03/21 04:42:56;;;;;;;34.45;24.23;;;;;;;8.33;90.34;101083.56;4883491;29;20235;-77
2023/03/21 04:45:25;;;;;;;32.80;22.38;;;;;;;8.40;90.79;101083.66;4882159;29;20244;-77
2023/03/21 04:47:57;;;;;;;33.53;23.92;;;;;;;8.37;90.94;101094.84;4881320;29;20234;-76
2023/03/21 04:50:26;;;;;;;34.60;21.65;;;;;;;8.32;91.81;101090.00;4884977;29;20213;-77
2023/03/21 04:52:55;;;;;;;37.70;24.27;;;;;;;8.16;92.69;101088.25;4881100;29;20204;-77
2023/03/21 04:55:26;;;;;;;41.13;27.50;;;;;;;8.20;93.27;101094.94;4882532;29;20294;-76
2023/03/21 04:57:56;;;;;;;39.45;23.60;;;;;;;8.25;93.65;101083.59;4885766;29;20740;-77
2023/03/21 05:00:26;;;;;;;37.33;24.67;;;;;;;8.37;93.32;101087.59;4897067;29;20208;-76
2023/03/21 05:02:57;;;;;;;30.00;21.52;;;;;;;8.32;93.77;101083.75;4883451;29;20211;-76
2023/03/21 05:05:28;;;;;;;41.60;25.00;;;;;;;8.38;94.13;101080.31;4893537;29;20226;-77
2023/03/21 05:07:57;;;;;;;33.58;24.63;;;;;;;8.39;93.86;101082.00;4891819;29;20254;-77
2023/03/21 05:10:26;;;;;;;35.63;22.42;;;;;;;8.31;93.71;101091.00;4903093;29;20233;-77
2023/03/21 05:12:55;;;;;;;40.42;25.65;;;;;;;8.40;93.39;101083.66;4893245;29;20203;-76
2023/03/21 05:15:24;;;;;;;39.08;23.88;;;;;;;8.23;93.94;101089.16;4912316;29;20561;-77
2023/03/21 05:17:57;;;;;;;37.15;24.90;;;;;;;8.26;94.00;101088.81;4891757;29;20223;-77
2023/03/21 05:20:26;;;;;;;38.55;24.80;;;;;;;8.36;93.87;101088.59;4884775;29;20579;-76
2023/03/21 05:22:56;;;;;;;36.05;22.30;;;;;;;8.44;93.75;101083.13;4890836;29;20238;-76
2023/03/21 05:25:32;;;;;;;38.58;23.45;;;;;;;8.33;94.11;101082.75;4884134;29;20212;-77
2023/03/21 05:28:10;;;;;;;38.03;24.80;;;;;;;8.38;94.22;101078.44;4881034;29;20307;-75
2023/03/21 05:30:39;;;;;;;36.25;23.83;;;;;;;8.38;93.95;101080.31;4890179;29;20208;-77
2023/03/21 05:33:10;;;;;;;41.13;25.63;;;;;;;8.30;95.02;101083.94;4883867;29;20226;-77
2023/03/21 05:35:40;;;;;;;41.38;24.58;;;;;;;8.28;95.40;101086.75;4886539;29;20209;-77
2023/03/21 05:38:11;;;;;;;39.55;24.00;;;;;;;8.26;95.59;101083.44;4884083;29;20226;-77
2023/03/21 05:40:50;;;;;;;38.42;23.23;;;;;;;8.33;96.37;101080.06;4898685;29;20207;-77
2023/03/21 05:43:20;;;;;;;36.20;25.60;;;;;;;8.29;95.49;101077.69;4887223;29;20294;-76
2023/03/21 05:45:49;;;;;;;43.00;24.60;;;;;;;8.41;96.03;101077.25;4885270;29;20203;-77
2023/03/21 05:48:20;;;;;;;37.33;24.10;;;;;;;8.58;95.27;101079.59;4887056;29;20216;-76
2023/03/21 05:51:08;;;;;;;38.88;24.05;;;;;;;8.56;94.69;101076.28;4899589;29;20184;-76
2023/03/21 05:53:37;;;;;;;40.08;22.30;;;;;;;8.63;95.21;101084.44;4909876;29;20192;-76
2023/03/21 05:56:08;;;;;;;41.33;25.67;;;;;;;8.65;94.20;101082.41;4905279;29;20198;-74
2023/03/21 05:59:04;;;;;;;43.42;25.45;;;;;;;8.74;93.95;101081.28;4891581;29;20231;-77
2023/03/21 06:01:40;;;;;;;43.38;24.30;;;;;;;8.84;93.43;101084.56;4884758;29;20203;-78
2023/03/21 06:04:19;;;;;;;37.45;23.85;;;;;;;8.86;93.51;101087.88;4888611;29;20212;-78
2023/03/21 06:06:50;;;;;;;33.75;21.67;;;;;;;8.93;93.19;101091.53;4886104;29;20213;-79
2023/03/21 06:09:20;;;;;;;37.35;24.90;;;;;;;8.89;92.41;101086.69;4890900;29;20235;-78
2023/03/21 06:12:04;;;;;;;36.47;23.63;;;;;;;8.94;92.32;101095.06;4887548;29;20705;-79
2023/03/21 06:14:42;;;;;;;36.25;22.63;;;;;;;8.90;92.01;101096.47;4899020;29;20203;-79
2023/03/21 06:17:26;;;;;;;38.15;23.45;;;;;;;8.92;92.27;101095.25;4884802;29;20232;-77
2023/03/21 06:20:09;;;;;;;39.08;22.48;;;;;;;8.95;91.31;101094.88;4887013;29;20270;-77
2023/03/21 06:22:48;;;;;;;35.42;21.70;;;;;;;8.84;91.69;101092.66;4891964;29;20199;-78
2023/03/21 06:25:23;;;;;;;35.00;21.55;;;;;;;8.88;91.86;101104.75;4893727;29;20217;-80
2023/03/21 06:27:53;;;;;;;37.88;25.33;;;;;;;8.99;92.27;101106.97;4889435;29;20226;-76
2023/03/21 06:30:22;;;;;;;43.83;23.45;;;;;;;9.03;91.58;101102.03;4888398;29;20684;-77
2023/03/21 06:33:05;;;;;;;35.50;22.90;;;;;;;9.04;92.09;101104.56;4884198;29;20671;-76
2023/03/21 06:35:35;;;;;;;37.58;22.67;;;;;;;9.10;92.12;101095.69;4890678;29;20204;-76
2023/03/21 06:38:05;;;;;;;33.47;22.45;;;;;;;9.06;92.02;101097.09;4883220;29;20236;-77
2023/03/21 06:40:35;;;;;;;39.85;23.75;;;;;;;9.07;91.23;101101.47;4889256;29;20231;-76
2023/03/21 06:43:05;;;;;;;38.80;24.65;;;;;;;9.21;91.21;101101.66;4887814;29;20204;-77
2023/03/21 06:45:39;;;;;;;35.88;22.45;;;;;;;9.26;90.77;101102.75;4890264;29;20215;-76
2023/03/21 06:48:11;;;;;;;33.50;21.52;;;;;;;9.36;91.26;101102.47;4886296;29;20227;-76
2023/03/21 06:50:51;;;;;;;37.13;21.08;;;;;;;9.42;89.67;101099.00;4883228;29;20211;-77
2023/03/21 06:53:26;;;;;;;38.47;23.77;;;;;;;9.30;89.72;101100.50;4889325;29;20207;-77
2023/03/21 06:56:15;;;;;;;36.70;22.90;;;;;;;9.24;90.34;101103.97;4884611;29;20213;-77
2023/03/21 06:58:45;;;;;;;45.83;26.83;;;;;;;9.29;90.52;101101.56;4891077;29;20324;-78
2023/03/21 07:01:30;;;;;;;36.78;23.90;;;;;;;9.30;91.42;101103.22;4897782;29;20258;-78
2023/03/21 07:04:07;;;;;;;39.92;25.10;;;;;;;9.34;91.30;101104.53;4879986;29;20220;-76
2023/03/21 07:06:38;;;;;;;39.95;23.58;;;;;;;9.26;91.87;101102.75;4886852;29;20248;-75
2023/03/21 07:09:07;;;;;;;45.97;23.88;;;;;;;9.28;91.85;101110.69;4879497;29;20280;-76
2023/03/21 07:11:38;;;;;;;38.58;22.58;;;;;;;9.20;92.14;101102.69;4884619;29;20291;-76
2023/03/21 07:14:07;;;;;;;39.67;25.27;;;;;;;9.28;92.95;101102.56;4887561;29;20223;-76
2023/03/21 07:16:37;;;;;;;34.83;23.80;;;;;;;9.33;92.89;101109.09;4883747;29;20196;-77
2023/03/21 07:19:06;;;;;;;38.00;24.97;;;;;;;9.35;93.29;101112.41;4887689;29;20220;-76
2023/03/21 07:21:35;;;;;;;37.88;23.52;;;;;;;9.26;94.37;101113.56;4885027;29;20455;-76
2023/03/21 07:24:06;;;;;;;38.15;24.05;;;;;;;9.44;93.95;101110.47;4889638;29;20268;-75
2023/03/21 07:26:36;;;;;;;37.35;23.20;;;;;;;9.41;93.59;101121.63;4889743;29;20221;-75
2023/03/21 07:29:06;;;;;;;38.28;23.90;;;;;;;9.38;93.70;101114.75;4886382;29;20716;-77
2023/03/21 07:31:36;;;;;;;38.35;23.17;;;;;;;9.20;94.64;101118.91;4905626;29;20236;-76
2023/03/21 07:34:05;;;;;;;45.13;27.58;;;;;;;9.37;93.45;101115.78;4882848;29;20200;-76
2023/03/21 07:36:36;;;;;;;40.60;24.02;;;;;;;9.35;93.30;101111.59;4881833;29;20232;-76
2023/03/21 07:39:09;;;;;;;46.03;28.15;;;;;;;9.22;94.08;101116.81;4889423;29;20274;-76
2023/03/21 07:41:38;;;;;;;42.60;25.90;;;;;;;9.20;93.76;101122.41;4882130;29;20200;-76
2023/03/21 07:44:21;;;;;;;36.65;24.75;;;;;;;9.04;94.98;101125.31;4891224;29;20271;-76
2023/03/21 07:46:59;;;;;;;40.25;23.55;;;;;;;9.03;95.95;101121.78;4886551;29;20277;-76
2023/03/21 07:49:28;;;;;;;38.75;26.15;;;;;;;9.16;95.42;101119.25;4900557;29;20228;-77
2023/03/21 07:51:58;;;;;;;42.78;28.08;;;;;;;9.31;94.98;101121.09;4884389;29;20198;-77
2023/03/21 07:54:29;;;;;;;38.50;24.48;;;;;;;9.25;94.20;101124.53;4888759;29;20295;-77
2023/03/21 07:56:59;;;;;;;36.90;23.50;;;;;;;9.10;95.22;101117.28;4883234;29;20200;-77
2023/03/21 07:59:28;;;;;;;37.42;24.15;;;;;;;9.49;94.53;101125.06;4906721;29;20192;-76
2023/03/21 08:01:57;;;;;;;36.38;24.88;;;;;;;9.43;94.15;101108.78;4887973;29;20197;-76
2023/03/21 08:04:26;;;;;;;37.85;23.83;;;;;;;9.48;93.48;101109.91;4883211;29;20224;-75
2023/03/21 08:06:56;;;;;;;36.08;23.33;;;;;;;9.46;93.68;101113.81;4881651;29;20212;-76
2023/03/21 08:09:25;;;;;;;36.00;22.63;;;;;;;9.55;94.21;101112.66;4885113;29;20581;-76
2023/03/21 08:11:56;;;;;;;41.97;26.63;;;;;;;9.50;93.47;101109.69;4904794;29;20196;-75
2023/03/21 08:14:27;;;;;;;40.85;26.05;;;;;;;9.43;94.25;101106.94;4881820;29;20673;-76
2023/03/21 08:16:56;;;;;;;42.25;22.83;;;;;;;9.35;94.01;101106.19;4881351;29;20259;-75
2023/03/21 08:19:26;;;;;;;37.88;24.02;;;;;;;9.49;94.32;101106.16;4879357;29;20255;-75
2023/03/21 08:21:58;;;;;;;45.70;25.17;;;;;;;9.47;93.83;101110.94;4869979;29;20200;-76
2023/03/21 08:24:28;;;;;;;41.70;25.15;;;;;;;9.36;94.28;101107.88;4880618;29;20239;-74
2023/03/21 08:26:59;;;;;;;47.28;30.00;;;;;;;9.72;93.26;101114.13;4897230;29;20204;-75
2023/03/21 08:29:28;;;;;;;47.75;27.23;;;;;;;9.96;92.01;101116.47;4871326;29;20209;-75
2023/03/21 08:31:58;;;;;;;38.30;25.15;;;;;;;9.96;92.05;101113.75;4880059;29;20216;-75
2023/03/21 08:34:28;;;;;;;41.85;26.60;;;;;;;10.10;91.38;101111.16;4881058;29;20605;-75
2023/03/21 08:36:57;;;;;;;38.80;24.13;;;;;;;10.10;92.12;101116.56;4898386;29;20194;-75
2023/03/21 08:39:27;;;;;;;38.50;24.50;;;;;;;9.99;92.82;101121.47;4905823;29;20451;-76
2023/03/21 08:41:58;;;;;;;41.93;24.93;;;;;;;10.19;93.65;101115.44;4890184;29;20882;-75
2023/03/21 08:44:27;;;;;;;33.47;22.13;;;;;;;10.01;93.74;101119.41;4884408;29;20815;-75
2023/03/21 08:46:56;;;;;;;37.20;22.30;;;;;;;10.00;94.17;101108.78;4884742;29;20942;-75
2023/03/21 08:49:25;;;;;;;35.60;23.70;;;;;;;9.90;94.44;101111.81;4903684;29;20431;-75
2023/03/21 08:51:56;;;;;;;35.80;22.70;;;;;;;10.12;94.76;101112.63;4893837;29;20804;-75
2023/03/21 08:54:25;;;;;;;37.40;22.60;;;;;;;10.13;94.83;101113.47;4911362;29;20445;-74
2023/03/21 08:56:54;;;;;;;35.10;22.10;;;;;;;10.24;94.38;101116.53;4887975;29;20467;-75
2023/03/21 08:59:25;;;;;;;31.17;22.17;;;;;;;10.12;93.72;101111.81;4888771;29;20483;-75
2023/03/21 09:01:54;;;;;;;40.93;22.60;;;;;;;10.19;93.13;101110.03;4890810;29;20775;-74
2023/03/21 09:04:24;;;;;;;35.80;22.03;;;;;;;10.22;94.36;101110.47;4887524;29;20455;-75
2023/03/21 09:06:55;;;;;;;28.60;20.80;;;;;;;10.22;93.65;101113.19;4894179;29;20517;-75
2023/03/21 09:09:24;;;;;;;35.83;22.90;;;;;;;9.94;94.87;101118.50;4903487;29;20510;-75
2023/03/21 09:11:53;;;;;;;40.50;20.55;;;;;;;10.06;96.64;101118.84;4892485;29;20467;-74
2023/03/21 09:14:22;;;;;;;39.22;21.35;;;;;;;10.20;95.22;101112.56;4916133;29;20240;-74
2023/03/21 09:16:59;;;;;;;32.53;19.60;;;;;;;10.25;94.34;101114.69;4899575;29;20203;-75
2023/03/21 09:19:28;;;;;;;32.63;20.80;;;;;;;10.34;92.64;101113.50;4901186;29;20464;-75
2023/03/21 09:21:58;;;;;;;31.93;20.90;;;;;;;10.35;92.09;101115.19;4918100;29;20461;-75
2023/03/21 09:24:27;;;;;;;27.60;19.00;;;;;;;10.40;92.64;101107.31;4891491;29;20548;-75
2023/03/21 09:26:57;;;;;;;29.77;18.30;;;;;;;10.43;91.81;101115.88;4900678;29;20515;-74
2023/03/21 09:29:26;;;;;;;35.70;20.33;;;;;;;10.27;92.16;101113.44;4900683;29;20483;-74
2023/03/21 09:31:57;;;;;;;33.00;17.60;;;;;;;10.29;92.72;101113.25;4916613;29;20412;-75
2023/03/21 09:34:27;;;;;;;29.33;19.70;;;;;;;10.46;92.99;101111.91;4915926;29;20432;-74
2023/03/21 09:36:56;;;;;;;31.77;19.37;;;;;;;10.70;91.37;101114.19;4898774;29;20419;-74
2023/03/21 09:39:26;;;;;;;28.77;18.30;;;;;;;10.44;92.51;101114.00;4898403;29;20911;-75
2023/03/21 09:42:19;;;;;;;33.37;21.40;;;;;;;10.72;91.51;101106.72;4895714;29;20531;-74
2023/03/21 09:45:01;;;;;;;29.13;18.93;;;;;;;10.77;91.28;101114.25;4883910;29;20457;-73
2023/03/21 09:47:44;;;;;;;29.50;19.90;;;;;;;11.01;89.48;101107.50;4899808;29;20498;-75
2023/03/21 09:50:18;;;;;;;23.77;18.57;;;;;;;11.05;88.58;101114.19;4882207;29;20996;-72
2023/03/21 09:52:51;;;;;;;28.57;18.47;;;;;;;10.94;88.97;101104.75;4888783;29;20445;-74
2023/03/21 09:55:25;;;;;;;23.37;16.83;;;;;;;11.03;88.17;101105.47;4888105;29;20400;-77
2023/03/21 09:58:05;;;;;;;25.00;17.70;;;;;;;10.74;88.25;101101.13;4895194;29;20443;-77
2023/03/21 10:00:38;;;;;;;27.77;19.80;;;;;;;10.79;89.25;101104.06;4888744;29;20474;-75
2023/03/21 10:03:23;;;;;;;28.77;18.90;;;;;;;11.02;87.51;101101.06;4892008;29;20449;-79
2023/03/21 10:05:56;;;;;;;28.50;19.77;;;;;;;11.11;88.14;101097.16;4905518;29;20915;-79
2023/03/21 10:08:29;;;;;;;29.13;18.17;;;;;;;11.15;87.21;101099.25;4885238;29;20483;-79
2023/03/21 10:11:04;;;;;;;32.80;20.63;;;;;;;11.31;86.70;101090.78;4881804;29;20491;-80
2023/03/21 10:13:35;;;;;;;31.47;19.90;;;;;;;11.27;86.38;101088.69;4910630;29;20415;-79
2023/03/21 10:16:18;;;;;;;34.73;18.77;;;;;;;11.04;86.32;101082.72;4900760;29;20659;-79
2023/03/21 10:18:49;;;;;;;32.87;19.93;;;;;;;11.21;86.61;101086.78;4908174;29;20477;-80
2023/03/21 10:21:25;;;;;;;28.87;18.70;;;;;;;11.05;86.87;101090.66;4899157;29;20438;-80
2023/03/21 10:24:17;;;;;;;32.80;19.90;;;;;;;10.80;87.86;101093.00;4895755;29;20892;-78
2023/03/21 10:26:49;;;;;;;32.67;20.17;;;;;;;10.83;88.13;101087.22;4890740;29;20443;-80
2023/03/21 10:29:22;;;;;;;34.23;20.33;;;;;;;10.87;87.44;101079.53;4891947;29;20487;-80
2023/03/21 10:31:52;;;;;;;27.77;19.37;;;;;;;10.88;88.40;101073.09;4908806;29;20424;-80
2023/03/21 10:34:31;;;;;;;30.27;18.90;;;;;;;11.16;86.43;101065.72;4907861;29;20413;-79
2023/03/21 10:37:04;;;;;;;31.87;20.00;;;;;;;11.24;87.05;101064.69;4887807;29;20458;-80
2023/03/21 10:39:53;;;;;;;30.47;18.90;;;;;;;11.55;85.76;101070.44;4888187;29;20453;-80
2023/03/21 10:42:28;;;;;;;34.07;20.67;;;;;;;11.53;84.75;101072.50;4904741;29;20479;-81
2023/03/21 10:45:03;;;;;;;34.27;22.13;;;;;;;11.54;84.74;101071.47;4888732;29;20444;-80
2023/03/21 10:47:39;;;;;;;35.83;20.93;;;;;;;11.50;83.73;101075.66;4889269;29;20463;-80
2023/03/21 10:50:24;;;;;;;26.10;17.13;;;;;;;11.47;83.82;101067.94;4891901;29;20428;-80
2023/03/21 10:53:17;;;;;;;29.13;18.47;;;;;;;11.44;83.73;101064.78;4905365;29;20409;-80
2023/03/21 10:55:52;;;;;;;28.20;18.50;;;;;;;11.52;84.53;101065.41;4889417;29;20500;-79
2023/03/21 10:58:29;;;;;;;28.80;18.50;;;;;;;11.88;83.47;101067.00;4887954;29;20467;-80
2023/03/21 11:14:44;;;;;;;31.07;17.57;;;;;;;11.76;82.79;101056.75;5137549;27;20568;-82
2023/03/21 11:17:49;;;;;;;25.43;17.23;;;;;;;11.90;82.46;101054.91;5137569;28;20415;-84
2023/03/21 11:28:43;;;;;;;21.60;15.40;;;;;;;12.23;81.22;101046.78;5071379;28;20421;-82
2023/03/21 11:31:14;;;;;;;25.73;16.03;;;;;;;12.26;79.88;101046.34;5089402;27;20462;-83
2023/03/21 11:33:52;;;;;;;25.17;16.10;;;;;;;12.32;78.63;101042.81;5127876;28;20460;-83
2023/03/21 11:36:37;;;;;;;22.60;15.53;;;;;;;12.11;79.44;101041.16;5137290;27;20927;-83
2023/03/21 11:39:31;;;;;;;22.93;17.10;;;;;;;12.23;79.73;101037.81;5133421;28;20398;-83
2023/03/21 11:42:01;;;;;;;28.23;17.43;;;;;;;12.15;78.78;101034.25;5137609;28;20428;-82
2023/03/21 11:44:42;;;;;;;27.20;16.33;;;;;;;12.11;79.29;101032.16;5137948;28;20482;-83
2023/03/21 11:47:22;;;;;;;28.40;19.40;;;;;;;12.06;79.52;101027.38;5130643;28;20419;-82
2023/03/21 11:49:56;;;;;;;21.73;15.07;;;;;;;12.22;79.39;101028.00;5121098;28;20840;-83
2023/03/21 11:52:45;;;;;;;25.27;16.77;;;;;;;12.56;77.88;101025.88;5147416;28;20441;-82
2023/03/21 11:55:35;;;;;;;23.87;13.50;;;;;;;12.40;77.39;101020.88;5152130;28;20501;-82
2023/03/21 11:58:32;;;;;;;22.50;13.53;;;;;;;12.43;78.16;101012.34;5146502;28;20419;-83
2023/03/21 12:01:13;;;;;;;25.07;16.13;;;;;;;12.72;76.98;101018.31;5129790;27;20449;-83
2023/03/21 12:04:03;;;;;;;32.50;17.77;;;;;;;12.73;76.27;101011.84;5124559;28;20920;-82
2023/03/21 12:06:37;;;;;;;23.47;16.80;;;;;;;12.59;76.50;101009.16;5147617;28;20439;-83
2023/03/21 12:09:21;;;;;;;20.27;15.30;;;;;;;12.47;77.07;101010.84;5146335;27;20471;-83
2023/03/21 12:12:06;;;;;;;21.67;16.20;;;;;;;12.50;77.22;101005.00;5147533;28;20440;-83
2023/03/21 12:14:47;;;;;;;19.07;15.53;;;;;;;12.80;76.48;100999.91;5143616;27;20482;-83
2023/03/21 12:17:34;;;;;;;18.83;14.73;;;;;;;12.77;75.79;100999.50;5150178;27;20446;-83
2023/03/21 12:20:37;;;;;;;19.37;14.03;;;;;;;12.62;75.91;101000.59;5096269;28;20683;-83
2023/03/21 12:23:28;;;;;;;20.77;14.03;;;;;;;12.61;76.20;100990.78;5111862;28;20455;-83
2023/03/21 12:26:19;;;;;;;23.53;15.40;;;;;;;12.54;75.96;100995.38;5125035;28;21005;-85